Time;durP1;ratioP1;P1;durP2;ratioP2;P2;SDS_P1;SDS_P2;PMS_P1;PMS_P2;Temp;Humidity;BMP_temperature;BMP_pressure;BME280_temperature;BME280_humidity;BME280_pressure;Samples;Min_cycle;Max_cycle;Signal;HPM_P1;HPM_P2
2023/03/23 00:00:24;;;;;;;2.33;1.23;;;;;;;13.82;100.00;98165.41;5044994;28;20200;-80
2023/03/23 00:02:51;;;;;;;2.63;1.00;;;;;;;13.75;100.00;98176.59;5046011;28;20244;-80
2023/03/23 00:05:18;;;;;;;3.10;1.43;;;;;;;13.82;100.00;98168.06;5046049;28;20247;-81
2023/03/23 00:07:51;;;;;;;1.53;1.20;;;;;;;13.87;100.00;98171.94;5046082;28;20217;-80
2023/03/23 00:10:19;;;;;;;3.23;1.13;;;;;;;13.83;100.00;98169.72;5004428;28;20193;-81
2023/03/23 00:12:49;;;;;;;2.30;1.30;;;;;;;13.78;100.00;98187.94;5047085;28;20189;-80
2023/03/23 00:15:17;;;;;;;4.20;1.20;;;;;;;13.82;100.00;98166.22;5045122;28;20185;-81
2023/03/23 00:17:44;;;;;;;1.47;1.10;;;;;;;13.86;100.00;98175.59;5022334;28;20201;-81
2023/03/23 00:20:12;;;;;;;3.60;1.43;;;;;;;13.90;100.00;98178.84;5009481;28;20260;-81
2023/03/23 00:22:41;;;;;;;4.43;1.20;;;;;;;13.65;100.00;98181.09;5014862;28;20231;-81
2023/03/23 00:25:16;;;;;;;3.20;1.40;;;;;;;13.68;100.00;98177.31;5009709;28;20190;-81
2023/03/23 00:27:45;;;;;;;2.13;1.00;;;;;;;13.80;100.00;98164.69;5007647;28;20213;-80
2023/03/23 00:30:13;;;;;;;2.87;1.47;;;;;;;13.93;100.00;98166.06;5011818;28;20190;-80
2023/03/23 00:32:41;;;;;;;4.30;1.00;;;;;;;13.63;100.00;98166.25;5014479;28;20220;-81
2023/03/23 00:35:12;;;;;;;1.47;1.03;;;;;;;13.60;100.00;98166.53;5027128;28;20204;-80
2023/03/23 00:37:39;;;;;;;2.10;1.10;;;;;;;13.54;100.00;98162.63;5031878;28;20193;-79
2023/03/23 00:40:12;;;;;;;2.97;1.20;;;;;;;13.53;100.00;98170.75;5026653;28;20200;-80
2023/03/23 00:42:40;;;;;;;1.97;1.03;;;;;;;13.56;100.00;98158.00;5010440;28;20318;-80
2023/03/23 00:45:11;;;;;;;2.93;1.20;;;;;;;13.56;100.00;98152.69;5004473;28;20253;-81
2023/03/23 00:47:40;;;;;;;1.83;1.10;;;;;;;13.51;100.00;98154.06;5027711;28;20280;-80
2023/03/23 00:50:09;;;;;;;3.33;1.20;;;;;;;13.59;100.00;98143.56;4996022;28;20201;-81
2023/03/23 00:52:37;;;;;;;1.93;1.10;;;;;;;13.61;100.00;98141.63;5034140;28;20196;-80
2023/03/23 00:55:06;;;;;;;2.03;1.10;;;;;;;13.44;100.00;98146.69;5025714;28;20193;-80
2023/03/23 00:57:35;;;;;;;5.13;1.47;;;;;;;13.40;100.00;98153.25;5026912;28;20201;-80
2023/03/23 01:00:03;;;;;;;1.73;1.10;;;;;;;13.54;100.00;98157.31;5023942;28;20190;-80
2023/03/23 01:02:30;;;;;;;1.63;1.00;;;;;;;13.51;100.00;98148.75;5027298;28;20236;-81
2023/03/23 01:04:58;;;;;;;2.00;1.20;;;;;;;13.17;100.00;98135.88;5028485;28;20271;-80
2023/03/23 01:07:28;;;;;;;4.10;1.43;;;;;;;13.10;100.00;98148.03;5031368;28;20668;-81
2023/03/23 01:09:57;;;;;;;5.03;1.17;;;;;;;13.14;100.00;98139.66;5008844;28;20191;-80
2023/03/23 01:12:25;;;;;;;3.80;1.20;;;;;;;13.03;100.00;98139.78;4989059;28;20210;-81
2023/03/23 01:14:54;;;;;;;2.60;1.20;;;;;;;12.93;100.00;98146.03;4957082;28;20661;-81
2023/03/23 01:17:21;;;;;;;1.43;1.10;;;;;;;12.85;100.00;98138.78;4986609;28;20202;-80
2023/03/23 01:19:49;;;;;;;4.30;1.40;;;;;;;12.84;100.00;98147.72;5001145;28;20269;-80
2023/03/23 01:22:16;;;;;;;2.13;1.20;;;;;;;12.88;100.00;98144.66;4994207;28;20214;-79
2023/03/23 01:24:46;;;;;;;2.97;1.30;;;;;;;12.89;100.00;98148.16;4994684;28;20205;-80
2023/03/23 01:27:14;;;;;;;4.00;1.20;;;;;;;12.83;100.00;98154.84;4961627;28;20237;-80
2023/03/23 01:29:41;;;;;;;3.50;1.00;;;;;;;12.76;100.00;98151.06;4990907;28;20285;-79
2023/03/23 01:32:10;;;;;;;2.27;1.30;;;;;;;12.67;100.00;98156.38;4996499;28;20194;-80
2023/03/23 01:34:37;;;;;;;3.17;1.40;;;;;;;12.50;100.00;98144.56;4994261;28;20330;-80
2023/03/23 01:37:07;;;;;;;1.83;1.20;;;;;;;12.61;100.00;98155.06;4994143;28;20194;-80
2023/03/23 01:39:37;;;;;;;1.60;1.10;;;;;;;12.52;100.00;98156.72;4994381;28;20626;-80
2023/03/23 01:42:04;;;;;;;2.07;1.20;;;;;;;12.39;100.00;98157.94;4983649;28;20198;-80
2023/03/23 01:45:09;;;;;;;3.07;1.20;;;;;;;12.24;100.00;98145.03;4992400;28;20224;-79
2023/03/23 01:47:38;;;;;;;3.30;1.60;;;;;;;12.32;100.00;98134.56;5023707;28;20204;-80
2023/03/23 01:50:07;;;;;;;2.73;1.37;;;;;;;12.26;100.00;98139.59;5048296;28;20213;-80
2023/03/23 01:52:36;;;;;;;2.80;1.40;;;;;;;12.31;100.00;98154.13;5048514;28;20193;-80
2023/03/23 01:55:04;;;;;;;1.90;1.33;;;;;;;12.29;100.00;98153.44;5049385;28;20201;-79
2023/03/23 01:57:32;;;;;;;1.93;1.00;;;;;;;12.16;100.00;98149.31;5051327;28;20293;-79
2023/03/23 02:00:07;;;;;;;2.50;1.27;;;;;;;12.11;100.00;98155.03;5046907;28;20197;-80
2023/03/23 02:02:35;;;;;;;2.33;1.37;;;;;;;11.97;100.00;98158.88;5048466;28;20192;-80
2023/03/23 02:05:11;;;;;;;2.07;1.30;;;;;;;12.04;100.00;98151.22;5046359;28;20272;-79
2023/03/23 02:07:38;;;;;;;1.43;1.23;;;;;;;12.08;100.00;98150.00;5051152;28;20223;-80
2023/03/23 02:10:07;;;;;;;5.43;1.47;;;;;;;11.85;100.00;98137.84;5043300;28;20217;-80
2023/03/23 02:12:34;;;;;;;3.43;1.30;;;;;;;11.90;100.00;98131.19;5050722;28;20190;-80
2023/03/23 02:15:04;;;;;;;3.73;1.67;;;;;;;11.71;100.00;98131.03;5044730;28;20203;-79
2023/03/23 02:17:39;;;;;;;3.70;1.40;;;;;;;11.72;100.00;98125.59;5047770;28;20260;-79
2023/03/23 02:20:30;;;;;;;2.70;1.20;;;;;;;11.91;100.00;98119.59;5051696;28;20713;-79
2023/03/23 02:23:13;;;;;;;2.50;1.50;;;;;;;12.00;100.00;98110.84;4954118;28;20251;-79
2023/03/23 02:25:57;;;;;;;2.00;1.20;;;;;;;11.99;100.00;98113.63;4955927;28;20199;-80
2023/03/23 02:29:06;;;;;;;2.03;1.17;;;;;;;11.83;100.00;98092.88;4943686;28;20331;-79
2023/03/23 02:31:48;;;;;;;1.57;1.30;;;;;;;11.91;100.00;98090.41;4951546;28;20235;-80
2023/03/23 02:34:20;;;;;;;2.87;1.30;;;;;;;11.72;100.00;98104.38;4956575;28;20242;-79
2023/03/23 02:36:53;;;;;;;1.63;1.00;;;;;;;11.94;100.00;98099.91;4954953;28;20231;-80
2023/03/23 02:39:22;;;;;;;2.67;1.20;;;;;;;11.83;100.00;98100.00;4957279;28;20195;-79
2023/03/23 02:41:55;;;;;;;1.50;1.20;;;;;;;12.02;100.00;98094.78;5039215;28;20196;-79
2023/03/23 02:44:25;;;;;;;1.77;1.00;;;;;;;12.02;100.00;98100.09;5049519;28;20204;-79
2023/03/23 02:46:54;;;;;;;2.33;1.20;;;;;;;12.13;100.00;98097.34;5053094;28;20653;-80
2023/03/23 02:49:25;;;;;;;2.70;1.30;;;;;;;12.08;100.00;98093.44;5016394;28;20695;-80
2023/03/23 02:51:57;;;;;;;2.47;1.43;;;;;;;12.05;100.00;98107.78;5049267;28;20203;-79
2023/03/23 02:54:25;;;;;;;2.43;1.23;;;;;;;11.94;100.00;98103.41;5050685;28;20197;-80
2023/03/23 02:56:54;;;;;;;1.70;1.13;;;;;;;12.21;100.00;98096.69;5048530;28;20199;-80
2023/03/23 02:59:22;;;;;;;1.10;1.00;;;;;;;12.24;100.00;98099.88;5048837;28;20197;-79
2023/03/23 03:01:58;;;;;;;1.93;1.17;;;;;;;12.64;100.00;98114.09;5052951;28;20197;-80
2023/03/23 03:04:29;;;;;;;1.27;0.90;;;;;;;12.67;100.00;98113.84;5053054;28;20207;-79
2023/03/23 03:07:17;;;;;;;1.33;0.90;;;;;;;12.75;100.00;98103.38;5049079;28;20193;-79
2023/03/23 03:09:50;;;;;;;3.10;1.03;;;;;;;12.67;100.00;98098.75;5049450;28;20216;-79
2023/03/23 03:12:26;;;;;;;1.17;0.93;;;;;;;12.74;100.00;98099.91;5009103;28;20567;-79
2023/03/23 03:15:05;;;;;;;1.70;1.13;;;;;;;12.66;100.00;98094.41;4991495;28;20206;-79
2023/03/23 03:17:33;;;;;;;1.43;1.10;;;;;;;12.36;100.00;98100.66;4972100;28;20212;-80
2023/03/23 03:20:09;;;;;;;1.90;1.00;;;;;;;12.10;100.00;98100.28;4956572;28;20223;-80
2023/03/23 03:22:41;;;;;;;3.20;1.20;;;;;;;12.38;100.00;98096.03;4956602;28;20729;-80
2023/03/23 03:25:12;;;;;;;2.70;1.17;;;;;;;12.21;100.00;98096.69;4954147;28;20200;-80
2023/03/23 03:27:43;;;;;;;3.40;1.23;;;;;;;11.86;100.00;98118.31;4950560;28;20246;-79
2023/03/23 03:30:14;;;;;;;2.80;0.93;;;;;;;11.78;100.00;98118.94;4952427;28;20310;-79
2023/03/23 03:32:46;;;;;;;3.20;1.30;;;;;;;11.76;100.00;98107.59;4952384;28;20363;-80
2023/03/23 03:35:15;;;;;;;2.00;1.33;;;;;;;11.68;100.00;98110.94;4957170;28;20696;-80
2023/03/23 03:37:42;;;;;;;1.07;0.93;;;;;;;11.50;100.00;98079.84;4957475;28;20235;-79
2023/03/23 03:40:12;;;;;;;1.60;1.10;;;;;;;11.52;100.00;98101.75;4955828;28;20192;-79
2023/03/23 03:42:40;;;;;;;2.80;1.30;;;;;;;11.45;100.00;98104.06;4965805;28;20194;-78
2023/03/23 03:45:09;;;;;;;1.20;0.93;;;;;;;11.39;100.00;98109.91;5011319;28;20215;-79
2023/03/23 03:47:37;;;;;;;2.20;1.13;;;;;;;11.34;100.00;98109.44;5012918;28;20200;-79
2023/03/23 03:50:05;;;;;;;1.60;0.90;;;;;;;11.35;100.00;98113.78;4954285;28;20223;-79
2023/03/23 03:52:34;;;;;;;2.50;0.80;;;;;;;11.40;100.00;98116.91;4949547;28;20204;-79
2023/03/23 03:55:02;;;;;;;1.63;0.90;;;;;;;11.45;100.00;98118.16;4974954;28;20206;-80
2023/03/23 03:57:30;;;;;;;1.73;1.10;;;;;;;11.51;100.00;98110.69;4990609;28;20257;-80
2023/03/23 03:59:58;;;;;;;1.73;1.10;;;;;;;11.57;100.00;98113.63;4938575;28;20249;-79
2023/03/23 04:02:25;;;;;;;1.47;1.27;;;;;;;11.61;100.00;98108.94;4953803;29;20263;-80
2023/03/23 04:04:53;;;;;;;1.60;1.00;;;;;;;11.63;100.00;98110.47;4930538;29;20636;-80
2023/03/23 04:07:21;;;;;;;1.30;1.10;;;;;;;11.65;100.00;98113.00;4944855;28;20243;-80
2023/03/23 04:09:50;;;;;;;1.40;1.03;;;;;;;11.67;100.00;98124.31;4990356;28;20752;-80
2023/03/23 04:12:17;;;;;;;1.63;1.23;;;;;;;11.49;100.00;98121.44;4990800;28;20198;-80
2023/03/23 04:14:44;;;;;;;2.20;1.30;;;;;;;11.53;100.00;98125.50;4989842;28;20246;-80
2023/03/23 04:17:11;;;;;;;1.83;1.23;;;;;;;11.59;100.00;98129.44;4993627;28;20225;-80
2023/03/23 04:19:38;;;;;;;2.50;1.40;;;;;;;11.62;100.00;98134.47;4992782;28;20638;-80
2023/03/23 04:22:07;;;;;;;4.50;1.40;;;;;;;11.53;100.00;98133.44;4994036;28;20206;-80
2023/03/23 04:24:35;;;;;;;2.60;1.33;;;;;;;11.65;100.00;98128.91;4993687;28;20289;-80
2023/03/23 04:27:04;;;;;;;1.53;1.10;;;;;;;11.63;100.00;98141.47;4992223;28;20382;-80
2023/03/23 04:29:33;;;;;;;2.63;1.40;;;;;;;11.61;100.00;98146.91;4991102;28;20241;-80
2023/03/23 04:32:01;;;;;;;1.83;1.50;;;;;;;11.52;100.00;98146.84;4991868;28;20313;-79
2023/03/23 04:34:33;;;;;;;2.47;1.30;;;;;;;11.52;100.00;98147.69;4987543;28;20226;-80
2023/03/23 04:37:00;;;;;;;2.53;1.63;;;;;;;11.53;100.00;98146.69;4994226;28;20226;-79
2023/03/23 04:39:28;;;;;;;3.27;1.50;;;;;;;11.45;100.00;98147.34;4997495;28;20189;-80
2023/03/23 04:42:00;;;;;;;1.47;1.20;;;;;;;11.58;100.00;98152.47;5030215;28;20193;-80
2023/03/23 04:44:32;;;;;;;2.80;1.50;;;;;;;11.46;100.00;98156.97;5030911;28;20200;-80
2023/03/23 04:47:01;;;;;;;2.33;1.40;;;;;;;11.44;100.00;98164.22;5026537;28;20205;-80
2023/03/23 04:49:29;;;;;;;3.33;1.33;;;;;;;11.32;100.00;98162.59;5030329;28;20267;-79
2023/03/23 04:51:56;;;;;;;2.83;1.50;;;;;;;11.51;100.00;98153.13;5022023;28;20197;-80
2023/03/23 04:54:24;;;;;;;4.53;2.07;;;;;;;11.45;100.00;98151.81;5028929;28;20529;-80
2023/03/23 04:56:51;;;;;;;2.60;1.70;;;;;;;11.43;100.00;98140.50;5028805;28;20202;-80
2023/03/23 04:59:18;;;;;;;7.27;4.43;;;;;;;11.32;100.00;98140.56;5024839;28;20225;-80
2023/03/23 05:01:47;;;;;;;2.77;2.03;;;;;;;11.44;100.00;98148.31;5031320;28;20201;-80
2023/03/23 05:04:16;;;;;;;3.13;2.20;;;;;;;11.39;100.00;98147.03;5031521;28;20194;-80
2023/03/23 05:06:44;;;;;;;3.33;2.47;;;;;;;11.36;100.00;98149.91;5031566;28;20198;-80
2023/03/23 05:09:11;;;;;;;5.03;3.00;;;;;;;11.27;100.00;98153.34;5031514;28;20847;-79
2023/03/23 05:11:38;;;;;;;6.53;4.37;;;;;;;11.40;100.00;98162.81;5028649;28;20237;-80
2023/03/23 05:14:05;;;;;;;4.13;3.10;;;;;;;11.18;100.00;98152.28;5025519;28;20201;-80
2023/03/23 05:16:32;;;;;;;6.67;3.20;;;;;;;11.29;100.00;98154.03;5028694;28;20209;-80
2023/03/23 05:19:01;;;;;;;3.37;2.30;;;;;;;11.28;100.00;98137.28;5028648;28;20282;-80
2023/03/23 05:21:29;;;;;;;6.60;3.30;;;;;;;11.16;100.00;98133.88;5025771;28;20197;-79
2023/03/23 05:23:56;;;;;;;3.23;2.03;;;;;;;11.17;100.00;98127.59;5025875;28;20281;-80
2023/03/23 05:26:24;;;;;;;3.67;1.87;;;;;;;10.99;100.00;98129.09;5026527;28;20197;-80
2023/03/23 05:28:53;;;;;;;3.43;1.87;;;;;;;10.96;100.00;98110.81;5025718;28;20202;-80
2023/03/23 05:31:24;;;;;;;4.67;2.00;;;;;;;10.92;100.00;98120.00;5032443;28;20272;-80
2023/03/23 05:33:50;;;;;;;3.27;2.07;;;;;;;10.97;100.00;98128.41;5041788;28;20228;-79
2023/03/23 05:36:20;;;;;;;2.57;2.20;;;;;;;10.95;100.00;98140.09;5043772;28;20295;-80
2023/03/23 05:38:47;;;;;;;3.53;2.93;;;;;;;10.83;100.00;98152.53;5045938;28;20251;-80
2023/03/23 05:41:15;;;;;;;5.53;4.07;;;;;;;10.92;100.00;98146.50;5044526;28;20188;-79
2023/03/23 05:43:42;;;;;;;7.60;5.93;;;;;;;11.11;100.00;98148.47;5045483;28;20247;-79
2023/03/23 05:46:09;;;;;;;7.73;5.03;;;;;;;11.00;100.00;98149.38;5043371;28;20235;-80
2023/03/23 05:48:38;;;;;;;4.47;3.17;;;;;;;11.05;100.00;98152.47;5048485;28;20197;-80
2023/03/23 05:51:05;;;;;;;3.70;2.80;;;;;;;10.97;100.00;98157.53;5045638;28;20220;-80
2023/03/23 05:53:35;;;;;;;3.70;2.73;;;;;;;11.01;100.00;98158.16;5046570;28;20281;-80
2023/03/23 05:56:03;;;;;;;5.10;2.67;;;;;;;10.97;100.00;98162.00;5046933;28;20189;-80
2023/03/23 05:58:31;;;;;;;3.83;2.63;;;;;;;11.04;100.00;98157.88;5028956;28;20213;-80
2023/03/23 06:00:58;;;;;;;2.93;2.33;;;;;;;10.98;100.00;98158.38;5015851;28;20268;-80
2023/03/23 06:03:25;;;;;;;3.97;2.67;;;;;;;11.08;100.00;98160.16;5009811;28;20731;-80
2023/03/23 06:05:52;;;;;;;3.50;2.63;;;;;;;11.03;100.00;98162.34;5017180;28;20202;-80
2023/03/23 06:08:19;;;;;;;4.47;3.27;;;;;;;10.96;100.00;98168.28;5017195;28;20194;-80
2023/03/23 06:10:49;;;;;;;5.20;3.07;;;;;;;11.08;100.00;98162.81;4981525;28;20252;-79
2023/03/23 06:13:16;;;;;;;7.03;4.47;;;;;;;11.15;100.00;98166.63;5011789;28;20238;-80
2023/03/23 06:15:43;;;;;;;9.37;3.27;;;;;;;11.18;100.00;98157.59;5011521;28;20208;-80
2023/03/23 06:18:12;;;;;;;4.50;2.47;;;;;;;11.04;100.00;98152.59;5012637;28;20778;-80
2023/03/23 06:20:40;;;;;;;4.13;2.67;;;;;;;11.14;100.00;98151.72;5014703;28;20255;-80
2023/03/23 06:23:08;;;;;;;3.60;2.90;;;;;;;11.33;100.00;98161.63;5016863;28;20780;-80
2023/03/23 06:25:35;;;;;;;5.07;2.60;;;;;;;11.22;100.00;98159.03;5015851;28;20193;-80
2023/03/23 06:28:04;;;;;;;2.67;2.37;;;;;;;11.17;100.00;98150.59;5016778;28;20194;-80
2023/03/23 06:30:33;;;;;;;2.60;2.37;;;;;;;11.28;100.00;98155.00;5047932;28;20216;-80
2023/03/23 06:33:00;;;;;;;3.47;2.53;;;;;;;11.37;100.00;98164.84;5050040;28;20247;-80
2023/03/23 06:35:27;;;;;;;4.00;2.53;;;;;;;11.34;100.00;98167.78;5051198;28;20261;-80
2023/03/23 06:37:54;;;;;;;2.97;2.13;;;;;;;11.40;100.00;98164.63;5051528;28;20308;-80
2023/03/23 06:40:21;;;;;;;4.87;2.40;;;;;;;11.37;100.00;98171.00;5053330;28;20221;-80
2023/03/23 06:42:48;;;;;;;3.83;2.60;;;;;;;11.43;100.00;98167.00;5054003;28;20200;-80
2023/03/23 06:45:19;;;;;;;4.20;2.10;;;;;;;11.40;100.00;98169.94;5048869;28;20304;-80
2023/03/23 06:47:48;;;;;;;2.53;1.90;;;;;;;11.53;100.00;98175.03;5049932;28;20226;-80
2023/03/23 06:50:16;;;;;;;3.53;2.00;;;;;;;11.53;100.00;98173.22;5044751;28;20216;-80
2023/03/23 06:52:47;;;;;;;3.13;2.20;;;;;;;11.53;100.00;98177.69;5043980;28;20193;-80
2023/03/23 06:55:14;;;;;;;3.50;2.10;;;;;;;11.64;100.00;98178.47;5051520;28;20197;-80
2023/03/23 06:57:42;;;;;;;2.87;1.97;;;;;;;11.63;100.00;98179.44;5055047;28;20188;-80
2023/03/23 07:00:13;;;;;;;3.73;2.20;;;;;;;11.69;100.00;98191.34;5050341;28;20263;-80
2023/03/23 07:02:42;;;;;;;3.23;1.90;;;;;;;11.63;100.00;98181.25;5049637;28;20193;-80
2023/03/23 07:05:10;;;;;;;3.10;1.97;;;;;;;11.68;100.00;98176.41;5049635;28;20227;-80
2023/03/23 07:07:37;;;;;;;3.03;2.20;;;;;;;11.67;100.00;98164.94;5050609;28;20186;-80
2023/03/23 07:10:05;;;;;;;2.87;1.80;;;;;;;11.73;100.00;98175.03;5046651;28;20263;-80
2023/03/23 07:12:33;;;;;;;3.13;2.20;;;;;;;11.70;100.00;98171.81;5049766;28;20216;-79
2023/03/23 07:15:00;;;;;;;2.97;2.10;;;;;;;11.57;100.00;98179.94;5043507;28;20193;-80
2023/03/23 07:17:27;;;;;;;2.63;1.60;;;;;;;11.80;100.00;98175.41;5053556;28;20197;-81
2023/03/23 07:19:56;;;;;;;2.27;2.03;;;;;;;11.84;100.00;98160.88;5050700;28;20275;-80
2023/03/23 07:22:24;;;;;;;2.13;1.60;;;;;;;11.90;100.00;98162.19;5053486;28;20293;-80
2023/03/23 07:24:51;;;;;;;4.47;1.73;;;;;;;11.93;100.00;98181.34;5050847;28;20203;-80
2023/03/23 07:27:19;;;;;;;2.00;1.53;;;;;;;11.93;100.00;98173.38;5054414;28;20280;-80
2023/03/23 07:29:45;;;;;;;3.70;1.70;;;;;;;11.83;100.00;98158.38;5045893;28;20288;-80
2023/03/23 07:32:13;;;;;;;3.00;1.87;;;;;;;11.90;100.00;98160.38;5050096;28;20193;-80
2023/03/23 07:34:41;;;;;;;4.93;1.67;;;;;;;12.05;100.00;98163.50;5052889;28;20225;-80
2023/03/23 07:37:10;;;;;;;2.90;1.67;;;;;;;12.06;100.00;98165.19;5052297;28;20194;-80
2023/03/23 07:39:40;;;;;;;2.80;1.70;;;;;;;12.04;100.00;98175.94;5046580;28;20284;-80
2023/03/23 07:42:09;;;;;;;3.47;1.90;;;;;;;12.06;100.00;98180.28;5051265;28;20266;-80
2023/03/23 07:44:37;;;;;;;2.07;1.60;;;;;;;12.14;100.00;98183.97;5046954;28;20271;-80
2023/03/23 07:47:04;;;;;;;3.27;1.80;;;;;;;12.23;100.00;98201.75;5046215;28;20201;-80
2023/03/23 07:49:32;;;;;;;4.10;1.80;;;;;;;12.19;100.00;98199.50;5046418;28;20197;-81
2023/03/23 07:52:01;;;;;;;2.67;1.83;;;;;;;12.25;100.00;98201.63;5052541;28;20278;-80
2023/03/23 07:54:30;;;;;;;5.57;1.97;;;;;;;12.30;100.00;98194.09;5052785;28;20239;-80
2023/03/23 07:56:57;;;;;;;2.87;2.27;;;;;;;12.26;100.00;98192.69;5050056;28;20200;-81
2023/03/23 07:59:24;;;;;;;2.83;2.07;;;;;;;12.21;100.00;98189.59;5051509;28;20197;-80
2023/03/23 08:01:51;;;;;;;4.60;1.80;;;;;;;12.40;100.00;98187.03;5046995;28;20224;-80
2023/03/23 08:04:18;;;;;;;3.80;1.77;;;;;;;12.37;100.00;98181.16;5052669;28;20193;-80
2023/03/23 08:06:45;;;;;;;2.13;1.70;;;;;;;12.37;100.00;98187.28;5050087;28;20247;-81
2023/03/23 08:09:13;;;;;;;2.47;1.80;;;;;;;12.28;100.00;98188.09;5031703;28;20285;-80
2023/03/23 08:11:42;;;;;;;2.60;1.50;;;;;;;12.39;100.00;98198.63;5014915;28;20301;-80
2023/03/23 08:14:08;;;;;;;1.93;1.40;;;;;;;12.37;100.00;98197.91;5028524;28;20194;-80
2023/03/23 08:16:35;;;;;;;2.60;1.60;;;;;;;12.37;100.00;98211.19;5013127;28;20194;-80
2023/03/23 08:19:05;;;;;;;2.23;1.37;;;;;;;12.33;100.00;98215.91;5012660;28;20267;-80
2023/03/23 08:21:32;;;;;;;2.80;1.60;;;;;;;12.40;100.00;98224.19;5011970;28;20198;-80
2023/03/23 08:23:59;;;;;;;2.17;1.37;;;;;;;12.43;100.00;98225.75;5008157;28;20232;-80
2023/03/23 08:26:29;;;;;;;2.50;1.67;;;;;;;12.53;100.00;98213.34;5011989;28;20273;-80
2023/03/23 08:28:58;;;;;;;1.70;1.27;;;;;;;12.58;100.00;98219.09;5008924;28;20232;-80
2023/03/23 08:31:27;;;;;;;2.13;1.40;;;;;;;12.51;100.00;98221.44;5012191;28;20221;-80
2023/03/23 08:33:56;;;;;;;1.47;1.30;;;;;;;12.46;100.00;98225.50;5011511;28;20275;-80
2023/03/23 08:36:25;;;;;;;2.60;1.50;;;;;;;12.45;100.00;98226.44;4955129;28;20208;-80
2023/03/23 08:38:52;;;;;;;2.00;1.40;;;;;;;12.49;100.00;98220.75;4955741;28;20631;-80
2023/03/23 08:41:20;;;;;;;3.00;1.30;;;;;;;12.52;100.00;98225.78;4949404;28;20203;-80
2023/03/23 08:43:47;;;;;;;1.90;1.10;;;;;;;12.73;100.00;98230.19;4970990;28;20191;-80
2023/03/23 08:46:18;;;;;;;3.13;1.50;;;;;;;12.52;100.00;98244.38;4957159;28;20206;-80
2023/03/23 08:48:45;;;;;;;4.53;1.57;;;;;;;12.59;100.00;98239.38;4995071;28;20238;-81
2023/03/23 08:51:12;;;;;;;2.20;1.37;;;;;;;12.66;100.00;98242.34;4995119;28;20218;-80
2023/03/23 08:53:40;;;;;;;2.57;1.50;;;;;;;12.67;100.00;98233.41;5001333;28;20204;-80
2023/03/23 08:56:09;;;;;;;3.00;1.50;;;;;;;12.59;100.00;98250.00;5045873;28;20189;-80
2023/03/23 08:58:36;;;;;;;1.80;1.33;;;;;;;12.62;100.00;98239.09;5050780;28;20192;-80
2023/03/23 09:01:04;;;;;;;2.83;1.37;;;;;;;12.56;100.00;98234.34;5047935;28;20335;-80
2023/03/23 09:03:34;;;;;;;1.50;1.10;;;;;;;12.71;100.00;98232.16;5047102;28;20272;-80
2023/03/23 09:06:05;;;;;;;1.40;1.20;;;;;;;12.84;100.00;98224.81;5051156;28;20205;-80
2023/03/23 09:08:35;;;;;;;2.47;1.20;;;;;;;12.74;100.00;98229.22;5046186;28;20198;-80
2023/03/23 09:11:05;;;;;;;2.00;1.33;;;;;;;12.84;100.00;98233.63;5044088;28;20224;-80
2023/03/23 09:13:32;;;;;;;2.10;1.40;;;;;;;12.86;100.00;98225.50;5013902;28;20200;-79
2023/03/23 09:15:59;;;;;;;3.47;1.60;;;;;;;12.69;100.00;98226.97;5051388;28;20192;-80
2023/03/23 09:18:26;;;;;;;1.73;1.23;;;;;;;12.83;100.00;98234.56;5043640;28;20188;-80
2023/03/23 09:20:56;;;;;;;1.63;1.13;;;;;;;12.90;100.00;98226.91;5044710;28;20691;-79
2023/03/23 09:23:24;;;;;;;2.30;1.23;;;;;;;12.89;100.00;98220.75;5043225;28;20231;-80
2023/03/23 09:25:51;;;;;;;1.90;1.30;;;;;;;13.00;100.00;98216.28;5048687;28;20674;-80
2023/03/23 09:28:19;;;;;;;2.50;1.30;;;;;;;13.11;100.00;98222.31;5047920;28;20664;-80
2023/03/23 09:30:47;;;;;;;2.73;1.20;;;;;;;12.91;100.00;98209.97;5055399;28;20244;-80
2023/03/23 09:33:15;;;;;;;2.27;1.37;;;;;;;13.05;100.00;98209.59;5051099;28;20225;-80
2023/03/23 09:35:42;;;;;;;1.83;1.30;;;;;;;13.13;100.00;98222.22;5052579;28;20197;-80
2023/03/23 09:38:13;;;;;;;1.43;1.10;;;;;;;13.11;100.00;98235.63;5055185;28;20199;-80
2023/03/23 09:40:48;;;;;;;2.60;1.47;;;;;;;13.04;100.00;98241.63;5022440;28;20189;-79
2023/03/23 09:43:30;;;;;;;1.70;1.27;;;;;;;13.01;100.00;98244.53;5051595;28;20192;-80
2023/03/23 09:46:05;;;;;;;1.83;1.40;;;;;;;13.13;100.00;98246.13;5048335;28;20247;-79
2023/03/23 09:48:48;;;;;;;2.20;1.37;;;;;;;13.17;100.00;98247.53;5002838;28;20212;-80
2023/03/23 09:51:28;;;;;;;2.03;1.27;;;;;;;13.13;100.00;98232.84;5055026;28;20216;-79
2023/03/23 09:54:02;;;;;;;2.00;1.30;;;;;;;13.29;100.00;98232.31;5052375;28;20203;-80
2023/03/23 09:56:33;;;;;;;2.90;1.50;;;;;;;13.42;100.00;98239.09;5048203;28;20197;-80
2023/03/23 09:59:04;;;;;;;4.23;1.53;;;;;;;13.40;100.00;98242.84;5047786;28;20196;-80
2023/03/23 10:01:36;;;;;;;12.90;9.13;;;;;;;13.29;100.00;98234.97;5050887;28;20235;-80
2023/03/23 10:04:13;;;;;;;22.40;14.97;;;;;;;13.08;100.00;98237.72;5051806;28;20219;-79
2023/03/23 10:06:40;;;;;;;2.97;2.63;;;;;;;13.22;100.00;98236.50;5053517;28;20197;-79
2023/03/23 10:09:15;;;;;;;5.00;3.77;;;;;;;13.01;100.00;98252.53;5049975;28;20197;-79
2023/03/23 10:11:54;;;;;;;24.00;21.40;;;;;;;12.89;100.00;98263.25;5050466;28;20224;-80
2023/03/23 10:14:33;;;;;;;2.83;1.60;;;;;;;12.91;100.00;98255.16;5053606;28;20208;-79
2023/03/23 10:17:10;;;;;;;2.93;2.63;;;;;;;12.89;100.00;98260.59;5053250;28;20227;-80
2023/03/23 10:19:45;;;;;;;4.13;2.40;;;;;;;12.84;100.00;98259.34;5054856;28;20263;-79
2023/03/23 10:22:15;;;;;;;4.27;3.37;;;;;;;12.82;100.00;98275.41;5054285;28;20192;-80
2023/03/23 10:24:50;;;;;;;3.23;2.20;;;;;;;12.81;100.00;98271.06;5054656;28;20216;-79
2023/03/23 10:27:24;;;;;;;3.93;2.30;;;;;;;12.88;100.00;98266.06;5048804;28;20197;-80
2023/03/23 10:29:58;;;;;;;5.27;1.60;;;;;;;12.94;100.00;98278.81;5046362;28;20271;-80
2023/03/23 10:32:40;;;;;;;2.40;1.87;;;;;;;12.97;100.00;98267.91;5048937;28;20224;-79
2023/03/23 10:35:14;;;;;;;2.33;2.10;;;;;;;12.94;100.00;98268.19;5057392;28;20261;-79
2023/03/23 10:37:47;;;;;;;4.70;1.57;;;;;;;12.96;100.00;98252.09;5052949;28;20199;-80
2023/03/23 10:40:20;;;;;;;4.23;1.40;;;;;;;13.04;100.00;98265.56;5057239;28;20316;-79
2023/03/23 10:42:48;;;;;;;2.30;1.40;;;;;;;13.01;100.00;98253.38;5053638;28;20264;-79
2023/03/23 10:45:19;;;;;;;3.33;1.43;;;;;;;13.05;100.00;98256.59;5052263;28;20265;-79
2023/03/23 10:47:52;;;;;;;2.60;1.17;;;;;;;13.03;100.00;98253.25;5054511;28;20208;-79
2023/03/23 10:50:27;;;;;;;1.83;1.40;;;;;;;13.08;100.00;98248.34;5057485;28;20210;-79
2023/03/23 10:52:57;;;;;;;12.97;5.30;;;;;;;13.10;100.00;98251.72;5053247;28;20218;-79
2023/03/23 10:55:37;;;;;;;1.50;1.23;;;;;;;13.15;100.00;98250.34;5011119;28;20241;-79
2023/03/23 10:58:06;;;;;;;1.50;1.40;;;;;;;13.24;100.00;98245.22;5016401;28;20240;-79
2023/03/23 11:00:34;;;;;;;2.67;1.80;;;;;;;13.44;100.00;98244.25;5012418;28;20235;-79
2023/03/23 11:03:05;;;;;;;2.17;1.40;;;;;;;13.47;100.00;98236.00;5017469;28;20201;-80
2023/03/23 11:05:39;;;;;;;3.10;1.50;;;;;;;13.75;100.00;98231.66;5014914;28;20287;-79
2023/03/23 11:08:13;;;;;;;1.90;1.70;;;;;;;13.51;100.00;98242.72;5009768;28;20202;-79
2023/03/23 11:10:48;;;;;;;3.57;1.60;;;;;;;13.73;100.00;98245.09;5016529;28;20197;-80
2023/03/23 11:13:17;;;;;;;1.57;1.03;;;;;;;13.59;100.00;98250.00;5029894;28;20195;-80
2023/03/23 11:15:47;;;;;;;2.63;1.40;;;;;;;13.48;100.00;98252.78;5051082;28;20269;-79
2023/03/23 11:18:20;;;;;;;4.27;1.30;;;;;;;13.48;100.00;98260.75;5052763;28;20249;-80
2023/03/23 11:20:50;;;;;;;2.47;1.50;;;;;;;13.52;100.00;98260.38;5050598;28;20219;-80
2023/03/23 11:23:22;;;;;;;1.83;1.40;;;;;;;13.48;100.00;98266.09;5054473;28;20204;-80
2023/03/23 11:26:00;;;;;;;2.10;1.30;;;;;;;13.62;100.00;98263.88;5047635;28;20198;-80
2023/03/23 11:28:31;;;;;;;1.80;1.40;;;;;;;13.73;100.00;98261.06;5051371;28;20207;-80
2023/03/23 11:31:00;;;;;;;3.87;1.40;;;;;;;13.57;100.00;98263.44;5053990;28;20185;-80
2023/03/23 11:33:31;;;;;;;2.03;1.33;;;;;;;13.62;100.00;98263.03;5056310;28;20224;-80
2023/03/23 11:35:59;;;;;;;2.57;1.20;;;;;;;13.58;100.00;98264.28;5053922;28;20194;-80